Rechercher aéroport 
image banner adimage banner adimage banner ad
image banner ad

CN12 - Williams

Situé à Williams, United States

ICAO - CN12, IATA -

Données fournies par Airmate  

Information générale

Coordonnées: N39°9'49" W122°7'54"
Élévation : 68 feet MSL.
Variation magnétique : 16° East
Voir autres Aéroports à California

Données opérationnelles

Special qualification required
Heure actuelle UTC:
Heure actuelle locale:
Météo à : KMYV - Yuba County ( 49 km )
METAR: KMYV 251253Z AUTO 18006KT 10SM CLR 19/09 A2988 RMK AO2 SLP121 T01940089
Voir NOTAMs / SUP AIP / TFR affectant cet aéroport [VIEW]
Fréquences de communication: [VIEW]

Pistes:

Identifiant RWYQFULongueur (ft)Largeur (ft)SurfaceLDA (ft)
16250040ASPH
34250040ASPH

Coordonnées de l'aéroport

Adresse: Williams United States

Vue satellite de CN12